sensor_id;sensor_type;location;lat;lon;timestamp;pressure;altitude;pressure_sealevel;temperature;humidity
71772;BME280;59606;52.138;5.424;2023-07-24T00:02:10;100514.28;;;18.87;91.77
71772;BME280;59606;52.138;5.424;2023-07-24T00:04:36;100515.13;;;18.88;91.41
71772;BME280;59606;52.138;5.424;2023-07-24T00:07:03;100514.88;;;18.81;91.45
71772;BME280;59606;52.138;5.424;2023-07-24T00:09:29;100516.97;;;18.77;90.98
71772;BME280;59606;52.138;5.424;2023-07-24T00:11:56;100515.47;;;18.75;90.95
71772;BME280;59606;52.138;5.424;2023-07-24T00:14:23;100519.91;;;18.74;90.90
71772;BME280;59606;52.138;5.424;2023-07-24T00:16:50;100515.59;;;18.73;91.22
71772;BME280;59606;52.138;5.424;2023-07-24T00:19:16;100508.78;;;18.71;90.74
71772;BME280;59606;52.138;5.424;2023-07-24T00:21:43;100506.28;;;18.69;91.03
71772;BME280;59606;52.138;5.424;2023-07-24T00:24:10;100507.41;;;18.67;90.78
71772;BME280;59606;52.138;5.424;2023-07-24T00:26:36;100505.88;;;18.64;90.97
71772;BME280;59606;52.138;5.424;2023-07-24T00:29:02;100497.59;;;18.59;90.48
71772;BME280;59606;52.138;5.424;2023-07-24T00:31:29;100496.63;;;18.50;90.37
71772;BME280;59606;52.138;5.424;2023-07-24T00:33:55;100496.91;;;18.47;90.67
71772;BME280;59606;52.138;5.424;2023-07-24T00:36:22;100493.72;;;18.44;90.59
71772;BME280;59606;52.138;5.424;2023-07-24T00:38:49;100493.06;;;18.42;90.62
71772;BME280;59606;52.138;5.424;2023-07-24T00:41:15;100494.88;;;18.41;90.53
71772;BME280;59606;52.138;5.424;2023-07-24T00:43:42;100489.72;;;18.40;90.58
71772;BME280;59606;52.138;5.424;2023-07-24T00:46:09;100483.75;;;18.37;90.60
71772;BME280;59606;52.138;5.424;2023-07-24T00:48:37;100482.09;;;18.36;90.93
71772;BME280;59606;52.138;5.424;2023-07-24T00:51:05;100476.00;;;18.36;91.47
71772;BME280;59606;52.138;5.424;2023-07-24T00:53:31;100470.72;;;18.36;91.68
71772;BME280;59606;52.138;5.424;2023-07-24T00:55:58;100466.44;;;18.35;92.11
71772;BME280;59606;52.138;5.424;2023-07-24T00:58:26;100467.53;;;18.32;92.27
71772;BME280;59606;52.138;5.424;2023-07-24T01:00:52;100459.78;;;18.31;92.38
71772;BME280;59606;52.138;5.424;2023-07-24T01:03:19;100457.28;;;18.29;92.55
71772;BME280;59606;52.138;5.424;2023-07-24T01:05:45;100450.47;;;18.27;92.68
71772;BME280;59606;52.138;5.424;2023-07-24T01:08:12;100448.97;;;18.24;92.82
71772;BME280;59606;52.138;5.424;2023-07-24T01:10:38;100453.66;;;18.21;92.98
71772;BME280;59606;52.138;5.424;2023-07-24T01:13:10;100461.59;;;18.21;92.87
71772;BME280;59606;52.138;5.424;2023-07-24T01:15:55;100461.75;;;18.19;93.41
71772;BME280;59606;52.138;5.424;2023-07-24T01:18:24;100458.00;;;18.22;93.19
71772;BME280;59606;52.138;5.424;2023-07-24T01:20:55;100460.63;;;18.22;93.15
71772;BME280;59606;52.138;5.424;2023-07-24T01:23:34;100454.66;;;18.20;93.39
71772;BME280;59606;52.138;5.424;2023-07-24T01:26:04;100452.03;;;18.20;93.51
71772;BME280;59606;52.138;5.424;2023-07-24T01:28:31;100450.38;;;18.19;93.68
71772;BME280;59606;52.138;5.424;2023-07-24T01:30:58;100451.47;;;18.16;93.88
71772;BME280;59606;52.138;5.424;2023-07-24T01:33:24;100456.75;;;18.16;93.95
71772;BME280;59606;52.138;5.424;2023-07-24T01:35:55;100450.66;;;18.16;93.69
71772;BME280;59606;52.138;5.424;2023-07-24T01:38:24;100451.34;;;18.18;93.77
71772;BME280;59606;52.138;5.424;2023-07-24T01:40:53;100446.19;;;18.16;93.96
71772;BME280;59606;52.138;5.424;2023-07-24T01:43:20;100449.81;;;18.15;93.91
71772;BME280;59606;52.138;5.424;2023-07-24T01:45:46;100446.47;;;18.13;93.90
71772;BME280;59606;52.138;5.424;2023-07-24T01:48:13;100449.28;;;18.11;94.12
71772;BME280;59606;52.138;5.424;2023-07-24T01:50:39;100433.47;;;18.11;94.20
71772;BME280;59606;52.138;5.424;2023-07-24T01:53:06;100429.00;;;18.12;93.93
71772;BME280;59606;52.138;5.424;2023-07-24T01:55:32;100415.13;;;18.10;93.97
71772;BME280;59606;52.138;5.424;2023-07-24T01:57:59;100420.56;;;18.08;94.12
71772;BME280;59606;52.138;5.424;2023-07-24T02:00:25;100414.03;;;18.03;94.43
71772;BME280;59606;52.138;5.424;2023-07-24T02:02:52;100417.94;;;17.99;94.60
71772;BME280;59606;52.138;5.424;2023-07-24T02:05:18;100417.25;;;17.97;94.71
71772;BME280;59606;52.138;5.424;2023-07-24T02:07:45;100407.53;;;17.97;94.98
71772;BME280;59606;52.138;5.424;2023-07-24T02:10:11;100412.69;;;17.99;95.38
71772;BME280;59606;52.138;5.424;2023-07-24T02:12:38;100412.53;;;18.00;95.66
71772;BME280;59606;52.138;5.424;2023-07-24T02:15:05;100415.84;;;18.02;95.82
71772;BME280;59606;52.138;5.424;2023-07-24T02:17:32;100406.84;;;18.05;95.55
71772;BME280;59606;52.138;5.424;2023-07-24T02:19:58;100409.47;;;18.05;95.42
71772;BME280;59606;52.138;5.424;2023-07-24T02:22:25;100404.19;;;18.05;95.86
71772;BME280;59606;52.138;5.424;2023-07-24T02:24:51;100398.94;;;18.05;95.92
71772;BME280;59606;52.138;5.424;2023-07-24T02:27:30;100396.41;;;18.03;95.62
71772;BME280;59606;52.138;5.424;2023-07-24T02:29:57;100390.31;;;18.03;96.48
71772;BME280;59606;52.138;5.424;2023-07-24T02:32:24;100391.59;;;17.99;96.69
71772;BME280;59606;52.138;5.424;2023-07-24T02:34:56;100389.94;;;17.98;97.05
71772;BME280;59606;52.138;5.424;2023-07-24T02:37:30;100392.56;;;17.98;97.12
71772;BME280;59606;52.138;5.424;2023-07-24T02:40:05;100392.84;;;17.95;97.75
71772;BME280;59606;52.138;5.424;2023-07-24T02:42:40;100386.88;;;17.93;97.71
71772;BME280;59606;52.138;5.424;2023-07-24T02:45:20;100378.16;;;17.92;98.24
71772;BME280;59606;52.138;5.424;2023-07-24T02:47:51;100381.59;;;17.93;98.18
71772;BME280;59606;52.138;5.424;2023-07-24T02:50:35;100379.81;;;17.93;98.01
71772;BME280;59606;52.138;5.424;2023-07-24T02:53:04;100376.50;;;17.91;98.41
71772;BME280;59606;52.138;5.424;2023-07-24T02:55:45;100379.97;;;17.92;98.59
71772;BME280;59606;52.138;5.424;2023-07-24T02:58:23;100374.69;;;17.92;98.59
71772;BME280;59606;52.138;5.424;2023-07-24T03:01:02;100379.97;;;17.92;98.83
71772;BME280;59606;52.138;5.424;2023-07-24T03:03:39;100382.72;;;17.90;98.86
71772;BME280;59606;52.138;5.424;2023-07-24T03:06:12;100377.44;;;17.90;99.24
71772;BME280;59606;52.138;5.424;2023-07-24T03:08:46;100367.88;;;17.89;99.62
71772;BME280;59606;52.138;5.424;2023-07-24T03:11:20;100374.16;;;17.88;99.87
71772;BME280;59606;52.138;5.424;2023-07-24T03:13:50;100368.03;;;17.87;100.00
71772;BME280;59606;52.138;5.424;2023-07-24T03:16:26;100362.63;;;17.89;100.00
71772;BME280;59606;52.138;5.424;2023-07-24T03:19:18;100368.88;;;17.88;100.00
71772;BME280;59606;52.138;5.424;2023-07-24T03:21:53;100372.63;;;17.85;100.00
71772;BME280;59606;52.138;5.424;2023-07-24T03:24:29;100356.09;;;17.83;100.00
71772;BME280;59606;52.138;5.424;2023-07-24T03:26:56;100350.56;;;17.86;100.00
71772;BME280;59606;52.138;5.424;2023-07-24T03:29:35;100348.75;;;17.87;100.00
71772;BME280;59606;52.138;5.424;2023-07-24T03:32:15;100347.91;;;17.86;100.00
71772;BME280;59606;52.138;5.424;2023-07-24T03:34:49;100361.38;;;17.83;100.00
71772;BME280;59606;52.138;5.424;2023-07-24T03:37:18;100357.91;;;17.83;100.00
71772;BME280;59606;52.138;5.424;2023-07-24T03:39:47;100360.56;;;17.83;100.00
71772;BME280;59606;52.138;5.424;2023-07-24T03:42:29;100358.06;;;17.81;100.00
71772;BME280;59606;52.138;5.424;2023-07-24T03:45:14;100353.75;;;17.80;100.00
71772;BME280;59606;52.138;5.424;2023-07-24T03:47:50;100364.59;;;17.77;100.00
71772;BME280;59606;52.138;5.424;2023-07-24T03:50:26;100357.91;;;17.73;100.00
71772;BME280;59606;52.138;5.424;2023-07-24T03:52:58;100347.53;;;17.72;100.00
71772;BME280;59606;52.138;5.424;2023-07-24T03:55:29;100346.81;;;17.70;100.00
71772;BME280;59606;52.138;5.424;2023-07-24T03:58:20;100357.50;;;17.68;100.00
71772;BME280;59606;52.138;5.424;2023-07-24T04:00:55;100362.09;;;17.66;100.00
71772;BME280;59606;52.138;5.424;2023-07-24T04:03:28;100360.97;;;17.68;100.00
71772;BME280;59606;52.138;5.424;2023-07-24T04:06:20;100350.44;;;17.68;100.00
71772;BME280;59606;52.138;5.424;2023-07-24T04:08:59;100358.47;;;17.67;100.00
71772;BME280;59606;52.138;5.424;2023-07-24T04:11:41;100355.16;;;17.65;100.00
71772;BME280;59606;52.138;5.424;2023-07-24T04:14:16;100364.03;;;17.64;100.00
71772;BME280;59606;52.138;5.424;2023-07-24T04:16:47;100344.75;;;17.63;100.00
71772;BME280;59606;52.138;5.424;2023-07-24T04:19:21;100356.13;;;17.64;100.00
71772;BME280;59606;52.138;5.424;2023-07-24T04:21:54;100349.47;;;17.60;100.00
71772;BME280;59606;52.138;5.424;2023-07-24T04:24:34;100349.47;;;17.60;100.00
71772;BME280;59606;52.138;5.424;2023-07-24T04:29:52;100352.38;;;17.57;100.00
71772;BME280;59606;52.138;5.424;2023-07-24T04:32:26;100356.69;;;17.58;100.00
71772;BME280;59606;52.138;5.424;2023-07-24T04:35:01;100357.66;;;17.57;100.00
71772;BME280;59606;52.138;5.424;2023-07-24T04:37:40;100358.50;;;17.57;100.00
71772;BME280;59606;52.138;5.424;2023-07-24T04:40:18;100362.09;;;17.56;100.00
71772;BME280;59606;52.138;5.424;2023-07-24T04:42:53;100368.06;;;17.58;100.00
71772;BME280;59606;52.138;5.424;2023-07-24T04:45:26;100364.44;;;17.59;100.00
71772;BME280;59606;52.138;5.424;2023-07-24T04:47:55;100361.81;;;17.59;100.00
71772;BME280;59606;52.138;5.424;2023-07-24T04:50:34;100368.06;;;17.58;100.00
71772;BME280;59606;52.138;5.424;2023-07-24T04:53:05;100372.50;;;17.58;100.00
71772;BME280;59606;52.138;5.424;2023-07-24T04:55:32;100360.28;;;17.57;100.00
71772;BME280;59606;52.138;5.424;2023-07-24T04:57:58;100359.63;;;17.55;100.00
71772;BME280;59606;52.138;5.424;2023-07-24T05:00:25;100352.81;;;17.52;100.00
71772;BME280;59606;52.138;5.424;2023-07-24T05:02:52;100352.97;;;17.51;100.00
71772;BME280;59606;52.138;5.424;2023-07-24T05:05:19;100358.78;;;17.44;100.00
71772;BME280;59606;52.138;5.424;2023-07-24T05:07:45;100356.16;;;17.44;100.00
71772;BME280;59606;52.138;5.424;2023-07-24T05:10:12;100370.88;;;17.47;100.00
71772;BME280;59606;52.138;5.424;2023-07-24T05:12:42;100359.63;;;17.45;100.00
71772;BME280;59606;52.138;5.424;2023-07-24T05:15:09;100358.63;;;17.46;100.00
71772;BME280;59606;52.138;5.424;2023-07-24T05:17:35;100357.69;;;17.47;100.00
71772;BME280;59606;52.138;5.424;2023-07-24T05:20:03;100354.06;;;17.48;100.00
71772;BME280;59606;52.138;5.424;2023-07-24T05:22:29;100353.66;;;17.53;100.00
71772;BME280;59606;52.138;5.424;2023-07-24T05:24:56;100364.19;;;17.53;100.00
71772;BME280;59606;52.138;5.424;2023-07-24T05:27:22;100359.75;;;17.53;100.00
71772;BME280;59606;52.138;5.424;2023-07-24T05:29:49;100366.69;;;17.54;100.00
71772;BME280;59606;52.138;5.424;2023-07-24T05:32:16;100365.84;;;17.54;100.00
71772;BME280;59606;52.138;5.424;2023-07-24T05:34:43;100370.16;;;17.55;100.00
71772;BME280;59606;52.138;5.424;2023-07-24T05:37:11;100362.78;;;17.58;100.00
71772;BME280;59606;52.138;5.424;2023-07-24T05:39:38;100367.78;;;17.61;100.00
71772;BME280;59606;52.138;5.424;2023-07-24T05:42:04;100361.69;;;17.61;100.00
71772;BME280;59606;52.138;5.424;2023-07-24T05:44:31;100365.00;;;17.63;100.00
71772;BME280;59606;52.138;5.424;2023-07-24T05:46:59;100364.88;;;17.64;100.00
71772;BME280;59606;52.138;5.424;2023-07-24T05:49:25;100366.69;;;17.64;100.00
71772;BME280;59606;52.138;5.424;2023-07-24T05:51:52;100362.91;;;17.66;100.00
71772;BME280;59606;52.138;5.424;2023-07-24T05:54:20;100362.09;;;17.66;100.00
71772;BME280;59606;52.138;5.424;2023-07-24T05:56:46;100374.28;;;17.67;99.85
71772;BME280;59606;52.138;5.424;2023-07-24T05:59:13;100375.97;;;17.68;99.93
71772;BME280;59606;52.138;5.424;2023-07-24T06:01:40;100368.72;;;17.70;99.65
71772;BME280;59606;52.138;5.424;2023-07-24T06:04:07;100372.06;;;17.72;99.77
71772;BME280;59606;52.138;5.424;2023-07-24T06:06:33;100380.50;;;17.76;99.43
71772;BME280;59606;52.138;5.424;2023-07-24T06:09:00;100379.50;;;17.96;99.15
71772;BME280;59606;52.138;5.424;2023-07-24T06:11:27;100377.06;;;18.22;97.10
71772;BME280;59606;52.138;5.424;2023-07-24T06:13:53;100364.44;;;18.53;96.28
71772;BME280;59606;52.138;5.424;2023-07-24T06:16:20;100374.81;;;18.65;95.16
71772;BME280;59606;52.138;5.424;2023-07-24T06:18:46;100368.00;;;19.07;93.06
71772;BME280;59606;52.138;5.424;2023-07-24T06:21:13;100369.19;;;19.49;90.27
71772;BME280;59606;52.138;5.424;2023-07-24T06:23:39;100371.00;;;19.48;88.16
71772;BME280;59606;52.138;5.424;2023-07-24T06:26:06;100378.66;;;19.16;89.58
71772;BME280;59606;52.138;5.424;2023-07-24T06:28:32;100365.41;;;18.80;91.52
71772;BME280;59606;52.138;5.424;2023-07-24T06:30:59;100373.56;;;18.59;92.76
71772;BME280;59606;52.138;5.424;2023-07-24T06:33:26;100376.50;;;18.56;93.57
71772;BME280;59606;52.138;5.424;2023-07-24T06:35:52;100380.25;;;18.53;92.34
71772;BME280;59606;52.138;5.424;2023-07-24T06:38:19;100381.09;;;18.54;93.24
71772;BME280;59606;52.138;5.424;2023-07-24T06:40:47;100376.50;;;18.56;92.24
71772;BME280;59606;52.138;5.424;2023-07-24T06:43:14;100377.88;;;18.60;91.91
71772;BME280;59606;52.138;5.424;2023-07-24T06:45:40;100380.63;;;18.68;91.80
71772;BME280;59606;52.138;5.424;2023-07-24T06:48:07;100378.31;;;18.83;91.08
71772;BME280;59606;52.138;5.424;2023-07-24T06:50:33;100375.97;;;18.80;88.92
71772;BME280;59606;52.138;5.424;2023-07-24T06:53:00;100383.22;;;18.78;89.01
71772;BME280;59606;52.138;5.424;2023-07-24T06:55:26;100384.34;;;18.75;90.20
71772;BME280;59606;52.138;5.424;2023-07-24T06:57:53;100388.63;;;18.76;88.16
71772;BME280;59606;52.138;5.424;2023-07-24T07:00:20;100371.28;;;18.74;88.76
71772;BME280;59606;52.138;5.424;2023-07-24T07:02:46;100368.22;;;18.78;88.94
71772;BME280;59606;52.138;5.424;2023-07-24T07:05:13;100376.22;;;18.87;88.77
71772;BME280;59606;52.138;5.424;2023-07-24T07:07:39;100377.97;;;18.96;87.40
71772;BME280;59606;52.138;5.424;2023-07-24T07:10:06;100371.56;;;18.98;86.92
71772;BME280;59606;52.138;5.424;2023-07-24T07:12:33;100383.09;;;18.97;86.56
71772;BME280;59606;52.138;5.424;2023-07-24T07:14:59;100390.34;;;18.95;86.87
71772;BME280;59606;52.138;5.424;2023-07-24T07:17:26;100385.47;;;18.91;85.22
71772;BME280;59606;52.138;5.424;2023-07-24T07:19:52;100381.13;;;18.81;85.96
71772;BME280;59606;52.138;5.424;2023-07-24T07:22:19;100387.53;;;18.79;85.46
71772;BME280;59606;52.138;5.424;2023-07-24T07:24:46;100389.47;;;18.77;85.40
71772;BME280;59606;52.138;5.424;2023-07-24T07:27:13;100393.63;;;18.79;85.52
71772;BME280;59606;52.138;5.424;2023-07-24T07:29:39;100391.06;;;18.88;86.36
71772;BME280;59606;52.138;5.424;2023-07-24T07:32:06;100388.75;;;19.02;85.76
71772;BME280;59606;52.138;5.424;2023-07-24T07:34:33;100388.00;;;19.10;84.22
71772;BME280;59606;52.138;5.424;2023-07-24T07:37:01;100381.81;;;19.19;83.89
71772;BME280;59606;52.138;5.424;2023-07-24T07:39:27;100371.09;;;19.39;83.43
71772;BME280;59606;52.138;5.424;2023-07-24T07:41:54;100365.94;;;19.55;81.37
71772;BME280;59606;52.138;5.424;2023-07-24T07:44:41;100363.06;;;19.66;81.21
71772;BME280;59606;52.138;5.424;2023-07-24T07:47:07;100367.75;;;19.72;80.53
71772;BME280;59606;52.138;5.424;2023-07-24T07:49:34;100361.97;;;19.77;81.44
71772;BME280;59606;52.138;5.424;2023-07-24T07:52:01;100353.91;;;19.78;80.87
71772;BME280;59606;52.138;5.424;2023-07-24T07:54:27;100360.03;;;19.79;79.77
71772;BME280;59606;52.138;5.424;2023-07-24T07:56:54;100353.13;;;19.86;81.63
71772;BME280;59606;52.138;5.424;2023-07-24T07:59:21;100355.34;;;19.99;80.04
71772;BME280;59606;52.138;5.424;2023-07-24T08:01:48;100351.53;;;20.01;79.47
71772;BME280;59606;52.138;5.424;2023-07-24T08:04:14;100354.19;;;20.01;80.23
71772;BME280;59606;52.138;5.424;2023-07-24T08:06:41;100349.28;;;20.07;80.48
71772;BME280;59606;52.138;5.424;2023-07-24T08:09:07;100346.13;;;20.11;79.97
71772;BME280;59606;52.138;5.424;2023-07-24T08:11:34;100348.25;;;19.99;79.99
71772;BME280;59606;52.138;5.424;2023-07-24T08:14:00;100342.66;;;20.02;80.01
71772;BME280;59606;52.138;5.424;2023-07-24T08:16:26;100357.69;;;20.02;79.55
71772;BME280;59606;52.138;5.424;2023-07-24T08:18:54;100357.47;;;19.95;78.93
71772;BME280;59606;52.138;5.424;2023-07-24T08:21:23;100356.72;;;20.11;80.15
71772;BME280;59606;52.138;5.424;2023-07-24T08:23:50;100360.50;;;20.43;78.84
71772;BME280;59606;52.138;5.424;2023-07-24T08:26:16;100348.63;;;20.47;77.66
71772;BME280;59606;52.138;5.424;2023-07-24T08:28:43;100346.06;;;20.63;78.30
71772;BME280;59606;52.138;5.424;2023-07-24T08:31:10;100345.56;;;20.68;77.14
71772;BME280;59606;52.138;5.424;2023-07-24T08:33:37;100352.00;;;20.65;76.18
71772;BME280;59606;52.138;5.424;2023-07-24T08:36:07;100350.19;;;20.66;76.28
71772;BME280;59606;52.138;5.424;2023-07-24T08:38:35;100359.13;;;20.65;76.08
71772;BME280;59606;52.138;5.424;2023-07-24T08:41:06;100365.03;;;20.59;75.54
71772;BME280;59606;52.138;5.424;2023-07-24T08:43:34;100361.34;;;20.43;75.69
71772;BME280;59606;52.138;5.424;2023-07-24T08:46:01;100364.28;;;20.32;76.23
71772;BME280;59606;52.138;5.424;2023-07-24T08:48:32;100356.66;;;20.29;77.65
71772;BME280;59606;52.138;5.424;2023-07-24T08:51:06;100356.38;;;20.40;76.84
71772;BME280;59606;52.138;5.424;2023-07-24T08:53:34;100361.84;;;20.47;77.38
71772;BME280;59606;52.138;5.424;2023-07-24T08:56:03;100350.84;;;20.68;74.76
71772;BME280;59606;52.138;5.424;2023-07-24T08:58:30;100356.19;;;20.76;74.98
71772;BME280;59606;52.138;5.424;2023-07-24T09:00:57;100347.91;;;20.95;74.29
71772;BME280;59606;52.138;5.424;2023-07-24T09:03:24;100353.06;;;21.05;74.73
71772;BME280;59606;52.138;5.424;2023-07-24T09:05:52;100356.38;;;21.07;73.50
71772;BME280;59606;52.138;5.424;2023-07-24T09:08:32;100335.88;;;21.09;72.85
71772;BME280;59606;52.138;5.424;2023-07-24T09:11:00;100337.34;;;21.04;74.49
71772;BME280;59606;52.138;5.424;2023-07-24T09:13:27;100343.47;;;21.12;73.46
71772;BME280;59606;52.138;5.424;2023-07-24T09:15:54;100335.88;;;21.17;74.69
71772;BME280;59606;52.138;5.424;2023-07-24T09:18:22;100341.50;;;21.39;72.50
71772;BME280;59606;52.138;5.424;2023-07-24T09:20:49;100333.91;;;21.44;72.90
71772;BME280;59606;52.138;5.424;2023-07-24T09:23:25;100326.28;;;21.41;72.29
71772;BME280;59606;52.138;5.424;2023-07-24T09:25:53;100340.03;;;21.45;73.61
71772;BME280;59606;52.138;5.424;2023-07-24T09:28:20;100317.97;;;21.28;70.10
71772;BME280;59606;52.138;5.424;2023-07-24T09:30:56;100322.28;;;21.04;70.26
71772;BME280;59606;52.138;5.424;2023-07-24T09:33:37;100323.25;;;20.87;71.30
71772;BME280;59606;52.138;5.424;2023-07-24T09:36:05;100321.59;;;20.78;72.81
71772;BME280;59606;52.138;5.424;2023-07-24T09:38:34;100311.19;;;20.76;72.65
71772;BME280;59606;52.138;5.424;2023-07-24T09:41:01;100309.00;;;20.71;72.77
71772;BME280;59606;52.138;5.424;2023-07-24T09:43:29;100301.41;;;20.77;73.33
71772;BME280;59606;52.138;5.424;2023-07-24T09:46:06;100297.75;;;20.78;72.53
71772;BME280;59606;52.138;5.424;2023-07-24T09:48:34;100300.91;;;20.73;72.39
71772;BME280;59606;52.138;5.424;2023-07-24T09:51:04;100308.03;;;20.73;72.28
71772;BME280;59606;52.138;5.424;2023-07-24T09:54:07;100312.00;;;20.77;72.88
71772;BME280;59606;52.138;5.424;2023-07-24T09:56:38;100320.44;;;20.80;71.03
71772;BME280;59606;52.138;5.424;2023-07-24T09:59:19;100328.38;;;20.80;71.19
71772;BME280;59606;52.138;5.424;2023-07-24T10:01:47;100338.97;;;20.88;71.37
71772;BME280;59606;52.138;5.424;2023-07-24T10:04:15;100324.75;;;21.06;70.75
71772;BME280;59606;52.138;5.424;2023-07-24T10:06:43;100321.94;;;21.15;71.20
71772;BME280;59606;52.138;5.424;2023-07-24T10:09:10;100314.00;;;21.32;70.48
71772;BME280;59606;52.138;5.424;2023-07-24T10:11:37;100315.81;;;21.31;70.96
71772;BME280;59606;52.138;5.424;2023-07-24T10:14:04;100322.63;;;21.34;68.48
71772;BME280;59606;52.138;5.424;2023-07-24T10:16:31;100320.31;;;21.39;69.45
71772;BME280;59606;52.138;5.424;2023-07-24T10:18:58;100319.81;;;21.52;68.06
71772;BME280;59606;52.138;5.424;2023-07-24T10:21:28;100323.41;;;21.75;69.89
71772;BME280;59606;52.138;5.424;2023-07-24T10:23:59;100315.34;;;22.08;69.24
71772;BME280;59606;52.138;5.424;2023-07-24T10:26:26;100299.56;;;22.23;66.46
71772;BME280;59606;52.138;5.424;2023-07-24T10:28:54;100293.81;;;22.03;67.04
71772;BME280;59606;52.138;5.424;2023-07-24T10:31:24;100287.44;;;21.81;67.17
71772;BME280;59606;52.138;5.424;2023-07-24T10:33:54;100300.94;;;21.47;66.98
71772;BME280;59606;52.138;5.424;2023-07-24T10:36:22;100287.00;;;21.28;66.93
71772;BME280;59606;52.138;5.424;2023-07-24T10:38:54;100291.81;;;21.25;69.27
71772;BME280;59606;52.138;5.424;2023-07-24T10:41:21;100292.50;;;21.27;68.48
71772;BME280;59606;52.138;5.424;2023-07-24T10:43:48;100300.28;;;21.45;69.18
71772;BME280;59606;52.138;5.424;2023-07-24T10:46:17;100292.09;;;21.62;67.43
71772;BME280;59606;52.138;5.424;2023-07-24T10:48:50;100305.13;;;21.88;69.74
71772;BME280;59606;52.138;5.424;2023-07-24T10:51:17;100299.63;;;21.98;65.60
71772;BME280;59606;52.138;5.424;2023-07-24T10:53:46;100278.88;;;22.10;65.88
71772;BME280;59606;52.138;5.424;2023-07-24T10:56:13;100284.25;;;22.33;66.37
71772;BME280;59606;52.138;5.424;2023-07-24T10:58:40;100284.81;;;22.51;63.26
71772;BME280;59606;52.138;5.424;2023-07-24T11:01:07;100283.81;;;22.52;63.96
71772;BME280;59606;52.138;5.424;2023-07-24T11:03:36;100276.16;;;22.57;62.32
71772;BME280;59606;52.138;5.424;2023-07-24T11:06:03;100287.13;;;22.54;64.09
71772;BME280;59606;52.138;5.424;2023-07-24T11:08:30;100286.25;;;22.62;63.09
71772;BME280;59606;52.138;5.424;2023-07-24T11:10:58;100287.16;;;22.46;63.33
71772;BME280;59606;52.138;5.424;2023-07-24T11:13:26;100284.56;;;22.38;62.83
71772;BME280;59606;52.138;5.424;2023-07-24T11:15:54;100281.91;;;22.38;62.37
71772;BME280;59606;52.138;5.424;2023-07-24T11:18:21;100288.03;;;22.39;63.88
71772;BME280;59606;52.138;5.424;2023-07-24T11:20:50;100283.44;;;22.32;63.89
71772;BME280;59606;52.138;5.424;2023-07-24T11:23:17;100289.81;;;22.23;63.96
71772;BME280;59606;52.138;5.424;2023-07-24T11:25:45;100295.00;;;22.40;63.38
71772;BME280;59606;52.138;5.424;2023-07-24T11:28:13;100290.03;;;22.68;65.19
71772;BME280;59606;52.138;5.424;2023-07-24T11:30:40;100289.75;;;23.09;64.36
71772;BME280;59606;52.138;5.424;2023-07-24T11:33:09;100289.97;;;23.22;64.07
71772;BME280;59606;52.138;5.424;2023-07-24T11:35:36;100294.25;;;23.08;62.54
71772;BME280;59606;52.138;5.424;2023-07-24T11:38:07;100292.22;;;23.10;62.86
71772;BME280;59606;52.138;5.424;2023-07-24T11:40:36;100305.72;;;23.23;63.61
71772;BME280;59606;52.138;5.424;2023-07-24T11:43:04;100303.06;;;23.23;62.53
71772;BME280;59606;52.138;5.424;2023-07-24T11:45:31;100305.28;;;22.97;62.40
71772;BME280;59606;52.138;5.424;2023-07-24T11:47:58;100315.56;;;22.69;63.98
71772;BME280;59606;52.138;5.424;2023-07-24T11:50:25;100313.50;;;22.56;64.87
71772;BME280;59606;52.138;5.424;2023-07-24T11:52:52;100312.25;;;22.44;65.52
71772;BME280;59606;52.138;5.424;2023-07-24T11:55:30;100311.13;;;22.30;66.22
71772;BME280;59606;52.138;5.424;2023-07-24T11:58:01;100312.19;;;22.12;67.55
71772;BME280;59606;52.138;5.424;2023-07-24T12:00:28;100323.84;;;21.95;70.79
71772;BME280;59606;52.138;5.424;2023-07-24T12:03:01;100315.16;;;21.70;71.35
71772;BME280;59606;52.138;5.424;2023-07-24T12:05:28;100308.72;;;21.56;73.08
71772;BME280;59606;52.138;5.424;2023-07-24T12:07:54;100310.19;;;21.42;73.62
71772;BME280;59606;52.138;5.424;2023-07-24T12:10:25;100304.41;;;21.39;73.79
71772;BME280;59606;52.138;5.424;2023-07-24T12:12:54;100309.72;;;21.47;74.01
71772;BME280;59606;52.138;5.424;2023-07-24T12:15:24;100310.84;;;21.53;73.87
71772;BME280;59606;52.138;5.424;2023-07-24T12:17:50;100303.41;;;21.56;73.01
71772;BME280;59606;52.138;5.424;2023-07-24T12:20:17;100299.56;;;21.67;72.08
71772;BME280;59606;52.138;5.424;2023-07-24T12:22:43;100303.84;;;21.76;70.68
71772;BME280;59606;52.138;5.424;2023-07-24T12:25:10;100290.06;;;21.89;71.17
71772;BME280;59606;52.138;5.424;2023-07-24T12:27:36;100292.50;;;21.99;68.99
71772;BME280;59606;52.138;5.424;2023-07-24T12:30:06;100294.00;;;22.01;69.23
71772;BME280;59606;52.138;5.424;2023-07-24T12:32:32;100285.66;;;22.12;70.27
71772;BME280;59606;52.138;5.424;2023-07-24T12:34:59;100299.41;;;22.16;68.01
71772;BME280;59606;52.138;5.424;2023-07-24T12:37:25;100287.50;;;22.20;67.08
71772;BME280;59606;52.138;5.424;2023-07-24T12:39:52;100292.34;;;22.40;67.25
71772;BME280;59606;52.138;5.424;2023-07-24T12:42:18;100286.66;;;22.51;66.64
71772;BME280;59606;52.138;5.424;2023-07-24T12:44:45;100292.88;;;22.35;67.37
71772;BME280;59606;52.138;5.424;2023-07-24T12:47:11;100299.06;;;22.19;67.52
71772;BME280;59606;52.138;5.424;2023-07-24T12:49:38;100300.94;;;22.02;68.26
71772;BME280;59606;52.138;5.424;2023-07-24T12:52:05;100304.97;;;21.90;68.71
71772;BME280;59606;52.138;5.424;2023-07-24T12:54:32;100314.81;;;21.73;75.62
71772;BME280;59606;52.138;5.424;2023-07-24T12:57:18;100322.47;;;21.52;77.47
71772;BME280;59606;52.138;5.424;2023-07-24T12:59:45;100321.47;;;21.04;82.37
71772;BME280;59606;52.138;5.424;2023-07-24T13:02:11;100319.25;;;20.66;83.73